Time;durP1;ratioP1;P1;durP2;ratioP2;P2;SDS_P1;SDS_P2;PMS_P1;PMS_P2;Temp;Humidity;BMP_temperature;BMP_pressure;BME280_temperature;BME280_humidity;BME280_pressure;Samples;Min_cycle;Max_cycle;Signal;HPM_P1;HPM_P2
2021/04/16 00:00:12;;;;;;;1.52;0.90;;;21.70;57.00;;;;;;5122298;28;20028;-34
2021/04/16 00:02:38;;;;;;;1.38;0.95;;;21.70;57.00;;;;;;5122819;28;20038;-34
2021/04/16 00:05:05;;;;;;;1.00;0.93;;;21.70;56.80;;;;;;5122330;28;20072;-34
2021/04/16 00:07:31;;;;;;;1.50;1.10;;;21.70;56.90;;;;;;5123458;28;20745;-34
2021/04/16 00:09:59;;;;;;;1.70;0.93;;;21.70;56.80;;;;;;5122819;28;20040;-34
2021/04/16 00:12:25;;;;;;;1.00;0.95;;;21.70;56.90;;;;;;5126472;28;20242;-34
2021/04/16 00:14:51;;;;;;;1.48;1.10;;;21.60;56.80;;;;;;5126591;27;20024;-34
2021/04/16 00:17:17;;;;;;;1.00;0.90;;;21.60;56.80;;;;;;5131827;27;20384;-34
2021/04/16 00:19:43;;;;;;;1.20;1.00;;;21.60;56.60;;;;;;5115952;27;20055;-34
2021/04/16 00:22:10;;;;;;;1.20;1.10;;;21.60;56.60;;;;;;5136280;27;20555;-34
2021/04/16 00:24:36;;;;;;;1.10;1.00;;;21.60;56.70;;;;;;5133556;27;20023;-34
2021/04/16 00:27:02;;;;;;;1.00;0.90;;;21.60;56.70;;;;;;5134297;27;20503;-34
2021/04/16 00:29:28;;;;;;;0.73;0.63;;;21.60;56.70;;;;;;5131351;27;20031;-34
2021/04/16 00:31:55;;;;;;;1.63;1.00;;;21.60;56.50;;;;;;5132305;27;20038;-34
2021/04/16 00:34:22;;;;;;;1.17;1.07;;;21.50;56.80;;;;;;5126152;27;20047;-34
2021/04/16 00:36:48;;;;;;;;;;;21.50;56.90;;;;;;5135023;27;20048;-34
2021/04/16 00:39:15;;;;;;;1.33;1.00;;;21.50;56.40;;;;;;5131498;27;19931;-34
2021/04/16 00:41:41;;;;;;;1.30;1.07;;;21.50;57.00;;;;;;5108191;27;20024;-34
2021/04/16 00:44:07;;;;;;;0.90;0.90;;;21.50;57.00;;;;;;5127901;27;20301;-34
2021/04/16 00:47:01;;;;;;;1.00;0.88;;;21.40;57.00;;;;;;5107716;28;20570;-34
2021/04/16 00:49:40;;;;;;;1.10;1.00;;;21.40;56.70;;;;;;5108650;28;20020;-34
2021/04/16 00:52:06;;;;;;;0.90;0.90;;;21.40;57.00;;;;;;5129568;27;20047;-34
2021/04/16 00:54:34;;;;;;;0.88;0.88;;;21.40;56.80;;;;;;5146546;27;20064;-34
2021/04/16 00:57:00;;;;;;;1.42;1.00;;;21.40;56.90;;;;;;5127836;27;20030;-34
2021/04/16 00:59:29;;;;;;;1.33;0.88;;;21.40;56.60;;;;;;5127730;27;20031;-34
2021/04/16 01:01:56;;;;;;;1.38;1.10;;;21.40;56.80;;;;;;5111114;27;20019;-34
2021/04/16 01:04:23;;;;;;;3.10;1.00;;;21.30;56.60;;;;;;5162164;27;20031;-34
2021/04/16 01:06:49;;;;;;;1.67;1.00;;;21.30;56.40;;;;;;5146002;27;20074;-34
2021/04/16 01:09:15;;;;;;;1.77;1.00;;;21.30;56.40;;;;;;5145428;27;20030;-34
2021/04/16 01:11:41;;;;;;;1.13;1.02;;;21.30;56.30;;;;;;5107031;28;20043;-33
2021/04/16 01:14:07;;;;;;;1.00;0.90;;;21.30;56.10;;;;;;5135705;27;20030;-34
2021/04/16 01:16:34;;;;;;;1.40;1.27;;;21.30;56.30;;;;;;5127492;27;20073;-34
2021/04/16 01:19:01;;;;;;;2.45;1.00;;;21.30;56.00;;;;;;5127509;27;20045;-35
2021/04/16 01:21:31;;;;;;;1.20;1.10;;;21.30;56.20;;;;;;5127749;27;20026;-34
2021/04/16 01:24:03;;;;;;;1.13;0.80;;;21.20;56.10;;;;;;5105422;28;20049;-34
2021/04/16 01:26:39;;;;;;;0.73;0.73;;;21.20;56.10;;;;;;5106650;28;20054;-34
2021/04/16 01:29:05;;;;;;;1.33;0.95;;;21.20;56.10;;;;;;5107000;28;20020;-33
2021/04/16 01:31:31;;;;;;;1.60;1.10;;;21.20;56.20;;;;;;5125141;28;20035;-34
2021/04/16 01:33:58;;;;;;;1.40;1.15;;;21.20;56.20;;;;;;5107185;28;20047;-33
2021/04/16 01:36:29;;;;;;;2.07;1.30;;;21.10;56.30;;;;;;5124887;28;20031;-34
2021/04/16 01:38:55;;;;;;;1.27;0.90;;;21.10;56.20;;;;;;5090167;28;20697;-34
2021/04/16 01:41:22;;;;;;;1.60;1.10;;;21.10;56.30;;;;;;5143789;27;20134;-34
2021/04/16 01:44:16;;;;;;;1.55;1.00;;;21.10;56.30;;;;;;5138112;27;20038;-34
2021/04/16 01:47:05;;;;;;;1.20;1.10;;;21.10;56.20;;;;;;5124530;28;20117;-34
2021/04/16 01:49:32;;;;;;;0.90;0.90;;;21.00;56.20;;;;;;5124860;28;20088;-34
2021/04/16 01:51:59;;;;;;;1.40;1.00;;;21.00;56.20;;;;;;5125045;28;20032;-34
2021/04/16 01:54:33;;;;;;;1.60;1.20;;;21.00;56.40;;;;;;5106626;28;20024;-34
2021/04/16 01:57:03;;;;;;;1.13;1.00;;;21.00;56.40;;;;;;5124504;28;20024;-34
2021/04/16 01:59:31;;;;;;;0.80;0.80;;;21.00;56.20;;;;;;5124720;28;20115;-34
2021/04/16 02:01:57;;;;;;;1.15;1.02;;;21.00;56.30;;;;;;5106828;27;20028;-34
2021/04/16 02:04:23;;;;;;;0.80;0.80;;;21.00;56.50;;;;;;5126337;27;20599;-34
2021/04/16 02:06:53;;;;;;;1.30;1.20;;;20.90;56.40;;;;;;5124334;28;20046;-34
2021/04/16 02:09:21;;;;;;;1.30;1.02;;;20.90;56.20;;;;;;5106094;28;20050;-34
2021/04/16 02:11:48;;;;;;;1.20;0.90;;;20.90;56.20;;;;;;5093423;28;20049;-34
2021/04/16 02:14:15;;;;;;;1.20;1.08;;;20.90;56.30;;;;;;5083512;28;20108;-34
2021/04/16 02:16:42;;;;;;;0.95;0.85;;;20.90;56.40;;;;;;5083463;28;20533;-34
2021/04/16 02:19:08;;;;;;;1.55;1.00;;;20.80;56.40;;;;;;5083245;28;20020;-34
2021/04/16 02:21:34;;;;;;;1.63;0.90;;;20.80;56.40;;;;;;5082050;28;20036;-34
2021/04/16 02:24:01;;;;;;;1.33;1.00;;;20.80;56.50;;;;;;5083212;28;20024;-34
2021/04/16 02:26:27;;;;;;;0.98;0.93;;;20.80;56.40;;;;;;5083642;28;20033;-34
2021/04/16 02:28:54;;;;;;;1.13;1.00;;;20.80;56.40;;;;;;5083337;28;20451;-33
2021/04/16 02:31:20;;;;;;;1.23;1.13;;;20.80;56.40;;;;;;5083063;28;20024;-34
2021/04/16 02:33:46;;;;;;;1.33;1.05;;;20.70;56.20;;;;;;5082863;28;20108;-34
2021/04/16 02:36:12;;;;;;;1.70;1.20;;;20.80;56.40;;;;;;5083001;28;20032;-34
2021/04/16 02:38:38;;;;;;;1.13;1.02;;;20.70;56.50;;;;;;5083255;28;20036;-34
2021/04/16 02:41:05;;;;;;;1.30;1.20;;;20.70;56.40;;;;;;5083422;28;20024;-34
2021/04/16 02:43:31;;;;;;;1.42;1.30;;;20.70;56.40;;;;;;5083292;28;20062;-34
2021/04/16 02:45:58;;;;;;;1.23;1.10;;;20.70;56.30;;;;;;5083127;28;20043;-33
2021/04/16 02:48:24;;;;;;;1.67;1.17;;;20.60;56.30;;;;;;5082994;28;20028;-34
2021/04/16 02:50:50;;;;;;;1.65;1.00;;;20.60;56.40;;;;;;5083005;28;20043;-34
2021/04/16 02:53:17;;;;;;;1.40;1.20;;;20.60;56.30;;;;;;5082824;28;20035;-34
2021/04/16 02:55:44;;;;;;;1.38;1.27;;;20.60;56.50;;;;;;5082931;28;20127;-34
2021/04/16 02:58:10;;;;;;;1.90;1.20;;;20.60;56.50;;;;;;5081493;28;20514;-34
2021/04/16 03:00:36;;;;;;;1.42;1.13;;;20.60;56.40;;;;;;5080793;28;20115;-34
2021/04/16 03:03:02;;;;;;;1.38;1.08;;;20.50;56.40;;;;;;5083051;28;20033;-34
2021/04/16 03:05:29;;;;;;;1.20;1.08;;;20.50;56.40;;;;;;5082954;28;20080;-34
2021/04/16 03:07:56;;;;;;;1.30;1.20;;;20.50;56.40;;;;;;5081611;28;20028;-34
2021/04/16 03:10:31;;;;;;;1.30;1.20;;;20.50;56.50;;;;;;5082481;28;20042;-34
2021/04/16 03:12:57;;;;;;;1.30;1.15;;;20.50;56.40;;;;;;5114220;28;20515;-35
2021/04/16 03:15:23;;;;;;;2.55;1.17;;;20.40;56.60;;;;;;5160115;27;20035;-34
2021/04/16 03:17:50;;;;;;;1.30;1.20;;;20.40;56.50;;;;;;5144289;27;20023;-34
2021/04/16 03:20:17;;;;;;;1.38;1.10;;;20.40;56.40;;;;;;5143572;27;20023;-34
2021/04/16 03:22:43;;;;;;;1.70;1.30;;;20.40;56.50;;;;;;5135902;27;20024;-34
2021/04/16 03:25:10;;;;;;;1.50;1.00;;;20.40;56.50;;;;;;5123415;28;20570;-34
2021/04/16 03:27:37;;;;;;;1.40;1.30;;;20.40;56.50;;;;;;5123353;28;20053;-34
2021/04/16 03:30:08;;;;;;;1.55;1.23;;;20.30;56.50;;;;;;5123077;28;20788;-34
2021/04/16 03:32:34;;;;;;;1.40;1.10;;;20.30;56.60;;;;;;5123283;28;20084;-39
2021/04/16 03:35:00;;;;;;;1.20;1.10;;;20.30;56.50;;;;;;5123309;28;20069;-34
2021/04/16 03:37:26;;;;;;;1.45;1.27;;;20.30;56.60;;;;;;5123154;28;20047;-34
2021/04/16 03:39:53;;;;;;;1.70;1.05;;;20.30;56.60;;;;;;5123033;28;20028;-34
2021/04/16 03:42:19;;;;;;;1.55;1.15;;;20.30;56.70;;;;;;5123236;28;20058;-34
2021/04/16 03:44:45;;;;;;;1.10;1.00;;;20.30;56.80;;;;;;5127669;28;20032;-33
2021/04/16 03:47:11;;;;;;;1.10;1.00;;;20.30;56.80;;;;;;5132173;27;20039;-34
2021/04/16 03:49:37;;;;;;;1.73;1.10;;;20.20;56.90;;;;;;5129776;27;20019;-34
2021/04/16 03:52:04;;;;;;;1.48;1.10;;;20.20;56.90;;;;;;5134028;27;20027;-34
2021/04/16 03:54:30;;;;;;;2.23;0.93;;;20.20;56.60;;;;;;5134404;27;20125;-34
2021/04/16 03:56:56;;;;;;;1.38;1.08;;;20.20;56.70;;;;;;5134152;27;20058;-33
2021/04/16 03:59:23;;;;;;;1.13;0.90;;;20.20;57.10;;;;;;5132510;27;20030;-33
2021/04/16 04:01:50;;;;;;;1.52;1.05;;;20.20;57.00;;;;;;5134318;27;20052;-33
2021/04/16 04:04:16;;;;;;;1.40;1.00;;;20.20;57.00;;;;;;5131474;27;20035;-34
2021/04/16 04:06:42;;;;;;;2.23;1.30;;;20.10;56.80;;;;;;5115087;27;20044;-34
2021/04/16 04:09:09;;;;;;;1.50;1.10;;;20.10;56.90;;;;;;5130747;27;20027;-34
2021/04/16 04:11:35;;;;;;;1.30;1.10;;;20.10;57.10;;;;;;5131501;27;20141;-34
2021/04/16 04:14:02;;;;;;;1.10;1.00;;;20.00;57.00;;;;;;5109720;28;20045;-34
2021/04/16 04:16:28;;;;;;;;;;;20.10;57.00;;;;;;5126400;27;20059;-33
2021/04/16 04:18:55;;;;;;;1.08;0.98;;;20.00;56.90;;;;;;5137550;27;19914;-33
2021/04/16 04:21:22;;;;;;;1.05;0.90;;;20.00;57.10;;;;;;5134967;27;20027;-34
2021/04/16 04:23:48;;;;;;;1.83;1.08;;;20.00;57.10;;;;;;5137833;27;20072;-34
2021/04/16 04:26:15;;;;;;;1.20;1.10;;;20.00;56.90;;;;;;5135817;27;20032;-33
2021/04/16 04:28:41;;;;;;;1.13;0.90;;;20.00;57.10;;;;;;5132208;27;20027;-33
2021/04/16 04:31:07;;;;;;;1.75;0.95;;;20.00;57.00;;;;;;5133787;27;20035;-33
2021/04/16 04:33:33;;;;;;;2.35;0.98;;;20.00;57.20;;;;;;5133962;27;20027;-34
2021/04/16 04:35:59;;;;;;;0.82;0.82;;;20.00;57.20;;;;;;5121617;28;20023;-34
2021/04/16 04:38:26;;;;;;;1.02;0.90;;;19.90;57.10;;;;;;5134296;27;20110;-34
2021/04/16 04:40:53;;;;;;;1.20;1.10;;;19.90;57.30;;;;;;5134102;27;20031;-33
2021/04/16 04:43:19;;;;;;;1.10;1.00;;;19.90;57.20;;;;;;5139315;27;20046;-34
2021/04/16 04:45:46;;;;;;;1.00;0.73;;;19.90;57.20;;;;;;5137593;27;20098;-39
2021/04/16 04:48:12;;;;;;;1.47;1.00;;;19.90;57.40;;;;;;5131475;27;20259;-33
2021/04/16 04:50:38;;;;;;;1.10;1.00;;;19.90;57.20;;;;;;5111465;27;20055;-33
2021/04/16 04:53:04;;;;;;;2.33;0.88;;;19.80;57.30;;;;;;5139193;27;20792;-34
2021/04/16 04:55:32;;;;;;;1.05;0.85;;;19.80;57.30;;;;;;5129534;27;20800;-33
2021/04/16 04:57:58;;;;;;;1.50;1.10;;;19.70;57.30;;;;;;5136690;27;20088;-34
2021/04/16 05:00:25;;;;;;;1.40;0.80;;;19.70;57.40;;;;;;5134205;27;20036;-34
2021/04/16 05:02:51;;;;;;;1.30;1.20;;;19.70;57.30;;;;;;5138425;27;20027;-34
2021/04/16 05:05:18;;;;;;;0.82;0.80;;;19.70;57.60;;;;;;5131036;27;20024;-34
2021/04/16 05:07:44;;;;;;;1.30;0.75;;;19.70;57.60;;;;;;5133520;27;20042;-34
2021/04/16 05:10:11;;;;;;;0.95;0.95;;;19.70;57.60;;;;;;5133231;27;20027;-34
2021/04/16 05:12:37;;;;;;;1.35;1.10;;;19.60;57.40;;;;;;5123408;27;20077;-34
2021/04/16 05:15:04;;;;;;;1.38;0.98;;;19.60;57.40;;;;;;5135789;27;20039;-34
2021/04/16 05:17:30;;;;;;;0.95;0.88;;;19.60;57.60;;;;;;5138842;27;20031;-34
2021/04/16 05:19:57;;;;;;;1.83;0.90;;;19.60;57.80;;;;;;5140831;27;20079;-33
2021/04/16 05:22:23;;;;;;;0.65;0.63;;;19.60;57.60;;;;;;5121392;27;20030;-38
2021/04/16 05:24:49;;;;;;;1.20;1.10;;;19.60;57.60;;;;;;5136760;27;20729;-33
2021/04/16 05:27:16;;;;;;;1.17;1.02;;;19.50;57.70;;;;;;5137494;27;20054;-34
2021/04/16 05:29:42;;;;;;;0.90;0.90;;;19.50;57.80;;;;;;5137226;27;20023;-34
2021/04/16 05:32:09;;;;;;;1.08;0.90;;;19.50;57.80;;;;;;5134355;27;20114;-33
2021/04/16 05:34:35;;;;;;;0.73;0.70;;;19.50;57.80;;;;;;5139106;27;20024;-34
2021/04/16 05:37:02;;;;;;;1.17;0.95;;;19.50;57.90;;;;;;5132380;27;20027;-34
2021/04/16 05:39:28;;;;;;;0.98;0.98;;;19.40;57.70;;;;;;5133584;27;20023;-33
2021/04/16 05:41:54;;;;;;;1.08;0.90;;;19.50;57.90;;;;;;5140362;27;20058;-33
2021/04/16 05:44:20;;;;;;;1.77;1.10;;;19.40;57.80;;;;;;5139860;27;20049;-33
2021/04/16 05:46:46;;;;;;;0.68;0.68;;;19.40;57.80;;;;;;5136867;27;20040;-34
2021/04/16 05:49:13;;;;;;;1.42;0.93;;;19.40;57.90;;;;;;5130982;27;20056;-34
2021/04/16 05:51:39;;;;;;;1.00;0.90;;;19.40;58.10;;;;;;5140906;27;20052;-33
2021/04/16 05:54:05;;;;;;;0.80;0.80;;;19.40;57.90;;;;;;5131159;27;20034;-34
2021/04/16 05:56:32;;;;;;;1.60;0.97;;;19.40;58.10;;;;;;5130461;27;20038;-34
2021/04/16 05:58:58;;;;;;;1.80;1.17;;;19.40;58.00;;;;;;5130002;27;20352;-34
2021/04/16 06:01:24;;;;;;;1.10;1.00;;;19.40;57.90;;;;;;5129668;27;20023;-34
2021/04/16 06:03:50;;;;;;;0.98;0.88;;;19.30;58.00;;;;;;5107610;27;20088;-34
2021/04/16 06:06:16;;;;;;;1.48;0.88;;;19.30;58.10;;;;;;5130700;27;20031;-34
2021/04/16 06:08:43;;;;;;;1.42;0.70;;;19.20;58.20;;;;;;5127775;27;20053;-34
2021/04/16 06:11:10;;;;;;;1.10;1.00;;;19.30;58.10;;;;;;5129895;27;20054;-33
2021/04/16 06:13:38;;;;;;;1.13;0.88;;;19.20;58.20;;;;;;5110716;27;20160;-34
2021/04/16 06:16:04;;;;;;;1.35;0.98;;;19.20;58.20;;;;;;5125944;27;20034;-33
2021/04/16 06:18:31;;;;;;;0.88;0.80;;;19.20;58.30;;;;;;5127907;27;20087;-34
2021/04/16 06:20:57;;;;;;;0.88;0.82;;;19.20;58.90;;;;;;5135868;27;20035;-33
2021/04/16 06:23:23;;;;;;;0.75;0.73;;;19.10;58.20;;;;;;5129662;27;20028;-33
2021/04/16 06:25:49;;;;;;;1.70;1.15;;;19.10;58.20;;;;;;5112442;27;20522;-33
2021/04/16 06:28:16;;;;;;;1.08;0.80;;;19.20;58.20;;;;;;5135232;27;20023;-34
2021/04/16 06:30:43;;;;;;;0.87;0.80;;;19.10;58.30;;;;;;5139830;27;20052;-33
2021/04/16 06:33:27;;;;;;;1.73;1.10;;;19.10;58.30;;;;;;5131942;27;20623;-34
2021/04/16 06:35:55;;;;;;;0.80;0.75;;;19.10;58.30;;;;;;5126164;27;20031;-33
2021/04/16 06:38:26;;;;;;;1.00;0.90;;;19.10;58.40;;;;;;5131711;27;20020;-34
2021/04/16 06:40:53;;;;;;;0.98;0.95;;;19.10;58.30;;;;;;5124065;28;20023;-33
2021/04/16 06:43:26;;;;;;;1.05;0.90;;;19.00;58.30;;;;;;5105971;28;20063;-33
2021/04/16 06:45:53;;;;;;;1.20;0.90;;;19.00;58.40;;;;;;5105684;28;20035;-34
2021/04/16 06:48:20;;;;;;;1.08;0.95;;;19.00;59.00;;;;;;5107865;27;20046;-33
2021/04/16 06:50:46;;;;;;;1.10;0.90;;;18.90;58.40;;;;;;5110979;27;20044;-33
2021/04/16 06:53:31;;;;;;;0.63;0.63;;;18.90;58.40;;;;;;5134919;27;20084;-33
2021/04/16 06:56:02;;;;;;;1.25;0.88;;;18.90;58.40;;;;;;5131263;27;20017;-33
2021/04/16 06:58:35;;;;;;;0.70;0.70;;;18.90;58.50;;;;;;5109681;27;20031;-33
2021/04/16 07:01:14;;;;;;;0.88;0.70;;;18.90;58.50;;;;;;5112340;27;20019;-34
2021/04/16 07:03:49;;;;;;;0.88;0.80;;;18.80;58.60;;;;;;5108120;27;20027;-33
2021/04/16 07:06:17;;;;;;;1.13;0.90;;;18.80;58.60;;;;;;5098535;27;20099;-33
2021/04/16 07:08:55;;;;;;;0.73;0.70;;;18.80;58.60;;;;;;5105390;28;20031;-34
2021/04/16 07:11:26;;;;;;;1.20;0.82;;;18.80;58.80;;;;;;5121338;27;20039;-33
2021/04/16 07:13:52;;;;;;;0.98;0.88;;;18.80;58.70;;;;;;5128814;27;20035;-33
2021/04/16 07:16:19;;;;;;;0.87;0.60;;;18.80;58.70;;;;;;5126714;27;20035;-33
2021/04/16 07:18:47;;;;;;;1.45;1.15;;;18.70;58.70;;;;;;5106018;28;20034;-34
2021/04/16 07:21:16;;;;;;;0.90;0.75;;;18.70;58.70;;;;;;5104688;28;20049;-34
2021/04/16 07:23:51;;;;;;;0.90;0.80;;;18.70;58.60;;;;;;5139140;27;20471;-33
2021/04/16 07:26:50;;;;;;;1.13;0.60;;;18.70;58.80;;;;;;5143962;28;20019;-33
2021/04/16 07:29:37;;;;;;;1.05;0.60;;;18.70;58.70;;;;;;5143952;28;20019;-33
2021/04/16 07:32:04;;;;;;;1.85;0.80;;;18.60;58.70;;;;;;5143850;28;20055;-33
2021/04/16 07:34:30;;;;;;;0.80;0.73;;;18.60;58.80;;;;;;5143932;28;20027;-33
2021/04/16 07:37:05;;;;;;;1.38;1.00;;;18.60;58.80;;;;;;5143769;28;20034;-34
2021/04/16 07:39:32;;;;;;;1.67;0.88;;;18.60;58.90;;;;;;5113954;28;20027;-34
2021/04/16 07:42:23;;;;;;;1.05;0.80;;;18.60;58.80;;;;;;5125362;28;20087;-33
2021/04/16 07:45:03;;;;;;;0.70;0.65;;;18.60;58.80;;;;;;5123316;28;20020;-34
2021/04/16 07:47:31;;;;;;;0.75;0.73;;;18.50;58.80;;;;;;5122331;28;20122;-34
2021/04/16 07:49:57;;;;;;;;;;;18.50;58.90;;;;;;5111487;28;20377;-33
2021/04/16 07:52:37;;;;;;;0.82;0.80;;;18.50;58.80;;;;;;5132383;28;19907;-33
2021/04/16 07:55:09;;;;;;;1.05;0.80;;;18.50;58.90;;;;;;5128767;28;20088;-34
2021/04/16 07:57:38;;;;;;;1.08;0.88;;;18.40;58.90;;;;;;5128937;28;21020;-33
2021/04/16 08:00:07;;;;;;;0.70;0.70;;;18.40;59.00;;;;;;5103424;28;20103;-33
2021/04/16 08:02:41;;;;;;;1.85;0.88;;;18.40;59.00;;;;;;5129187;28;20019;-34
2021/04/16 08:05:16;;;;;;;0.70;0.60;;;18.40;59.10;;;;;;5128550;28;20028;-33
2021/04/16 08:07:42;;;;;;;0.95;0.70;;;18.40;59.00;;;;;;5106414;28;20083;-34
2021/04/16 08:10:18;;;;;;;0.60;0.60;;;18.40;59.00;;;;;;5126956;28;20049;-33
2021/04/16 08:12:44;;;;;;;0.80;0.80;;;18.40;59.10;;;;;;5123900;28;20052;-34
2021/04/16 08:15:23;;;;;;;0.80;0.70;;;18.30;59.00;;;;;;5126552;28;20083;-33
2021/04/16 08:17:50;;;;;;;0.60;0.60;;;18.30;59.10;;;;;;5103165;28;20035;-34
2021/04/16 08:20:18;;;;;;;0.70;0.70;;;18.30;59.00;;;;;;5121280;27;20027;-33
2021/04/16 08:22:44;;;;;;;0.98;0.88;;;18.30;59.10;;;;;;5130453;28;20034;-33
2021/04/16 08:25:16;;;;;;;0.80;0.60;;;18.30;59.10;;;;;;5124979;28;20034;-33
2021/04/16 08:27:53;;;;;;;1.27;0.82;;;18.30;59.10;;;;;;5124882;28;20058;-33
2021/04/16 08:30:27;;;;;;;1.67;1.05;;;18.20;59.10;;;;;;5124973;28;20030;-33
2021/04/16 08:33:11;;;;;;;0.80;0.68;;;18.20;59.10;;;;;;5126399;27;20121;-33
2021/04/16 08:36:04;;;;;;;0.77;0.70;;;18.20;59.20;;;;;;5113848;27;20019;-33
2021/04/16 08:38:57;;;;;;;0.60;0.60;;;18.20;59.10;;;;;;5131821;27;20020;-33
2021/04/16 08:41:24;;;;;;;0.77;0.52;;;18.20;59.20;;;;;;5103438;28;20036;-33
2021/04/16 08:43:54;;;;;;;1.17;0.77;;;18.20;59.20;;;;;;5087866;28;20027;-33
2021/04/16 08:46:36;;;;;;;1.02;0.70;;;18.10;59.20;;;;;;5088310;28;20134;-34
2021/04/16 08:49:22;;;;;;;0.77;0.73;;;18.10;59.20;;;;;;5087406;28;20020;-34
2021/04/16 08:51:54;;;;;;;1.48;0.73;;;18.10;59.30;;;;;;5087463;28;20028;-33
2021/04/16 08:54:27;;;;;;;1.98;0.93;;;18.10;59.30;;;;;;5087712;28;20095;-33
2021/04/16 08:57:20;;;;;;;1.02;0.82;;;18.10;59.30;;;;;;5087703;28;20028;-33
2021/04/16 09:00:09;;;;;;;1.10;0.60;;;18.10;59.40;;;;;;5105526;28;20451;-33
2021/04/16 09:02:38;;;;;;;1.55;0.80;;;18.10;59.30;;;;;;5106058;27;20111;-33
2021/04/16 09:05:18;;;;;;;1.05;0.82;;;18.00;59.40;;;;;;5143912;27;20031;-33
2021/04/16 09:07:50;;;;;;;0.77;0.77;;;18.00;59.40;;;;;;5138795;27;20519;-33
2021/04/16 09:10:16;;;;;;;1.25;0.88;;;18.00;59.50;;;;;;5116973;27;20134;-35
2021/04/16 09:12:43;;;;;;;0.85;0.70;;;18.00;59.40;;;;;;5133341;27;20062;-33
2021/04/16 09:15:24;;;;;;;0.80;0.80;;;18.00;59.40;;;;;;5126007;28;20024;-33
2021/04/16 09:17:51;;;;;;;1.05;0.80;;;18.00;59.40;;;;;;5129282;27;20630;-33
2021/04/16 09:20:24;;;;;;;0.70;0.60;;;18.00;59.50;;;;;;5131531;27;20072;-33
2021/04/16 09:22:54;;;;;;;1.27;0.60;;;17.90;59.50;;;;;;5125245;27;20020;-33
2021/04/16 09:25:46;;;;;;;0.60;0.60;;;17.90;59.50;;;;;;5110647;27;20031;-33
2021/04/16 09:28:24;;;;;;;0.85;0.70;;;17.90;59.60;;;;;;5132262;27;20050;-33
2021/04/16 09:30:54;;;;;;;0.75;0.65;;;17.90;59.50;;;;;;5133057;27;20583;-33
2021/04/16 09:33:26;;;;;;;1.85;0.80;;;17.90;59.60;;;;;;5134080;27;20119;-33
2021/04/16 09:35:58;;;;;;;0.70;0.60;;;17.90;59.60;;;;;;5127210;27;20027;-34
2021/04/16 09:38:24;;;;;;;1.35;0.70;;;17.80;59.60;;;;;;5128501;27;20023;-33
2021/04/16 09:41:09;;;;;;;0.63;0.50;;;17.80;59.60;;;;;;5129958;27;20571;-33
2021/04/16 09:43:35;;;;;;;0.70;0.70;;;17.80;59.70;;;;;;5129680;27;20094;-33
2021/04/16 09:46:01;;;;;;;0.85;0.70;;;17.80;59.70;;;;;;5112000;27;20031;-33
2021/04/16 09:48:47;;;;;;;1.08;0.80;;;17.80;59.70;;;;;;5142976;27;20038;-33
2021/04/16 09:51:17;;;;;;;0.80;0.70;;;17.80;59.70;;;;;;5145584;27;20026;-34
2021/04/16 09:53:44;;;;;;;0.70;0.70;;;17.80;59.70;;;;;;5129685;27;20027;-33
2021/04/16 09:56:15;;;;;;;0.70;0.70;;;17.80;59.80;;;;;;5106530;28;20019;-34
2021/04/16 09:58:50;;;;;;;0.70;0.60;;;17.70;59.70;;;;;;5124796;28;20020;-33
2021/04/16 10:01:21;;;;;;;1.08;0.60;;;17.70;59.70;;;;;;5125053;28;20534;-33
2021/04/16 10:03:51;;;;;;;0.63;0.63;;;17.70;59.80;;;;;;5106643;28;20024;-33
2021/04/16 10:06:39;;;;;;;0.63;0.60;;;17.70;59.80;;;;;;5124833;28;20039;-33
2021/04/16 10:09:18;;;;;;;0.60;0.60;;;17.70;59.80;;;;;;5124382;28;20488;-33
2021/04/16 10:11:58;;;;;;;0.80;0.68;;;17.70;59.80;;;;;;5119153;27;20059;-33
2021/04/16 10:14:24;;;;;;;1.33;0.90;;;17.70;59.80;;;;;;5124721;28;20016;-33
2021/04/16 10:16:53;;;;;;;0.88;0.70;;;17.70;59.70;;;;;;5139491;27;20083;-33
2021/04/16 10:19:22;;;;;;;0.70;0.70;;;17.70;59.80;;;;;;5124059;28;20027;-33
2021/04/16 10:21:48;;;;;;;0.50;0.50;;;17.70;59.80;;;;;;5089284;28;20023;-33
2021/04/16 10:26:05;;;;;;;1.38;0.70;;;17.60;59.70;;;;;;5108236;28;20032;-33
2021/04/16 10:34:39;;;;;;;0.68;0.68;;;17.60;59.80;;;;;;5124530;28;20511;-33
2021/04/16 12:40:24;;;;;;;1.20;0.50;;;17.00;60.70;;;;;;5136289;27;20047;-33
2021/04/16 12:42:51;;;;;;;0.75;0.70;;;17.00;60.80;;;;;;5137593;27;20026;-33
2021/04/16 12:45:17;;;;;;;0.77;0.60;;;17.00;60.80;;;;;;5107889;28;20092;-33
2021/04/16 12:47:43;;;;;;;0.50;0.47;;;17.00;60.70;;;;;;5113312;27;20072;-33
2021/04/16 12:50:11;;;;;;;1.05;0.50;;;17.00;60.80;;;;;;5130584;27;20034;-33
2021/04/16 12:52:37;;;;;;;0.50;0.50;;;17.00;61.00;;;;;;5129985;27;20051;-33
2021/04/16 12:55:04;;;;;;;0.73;0.60;;;17.00;60.80;;;;;;5131576;27;20045;-33
2021/04/16 12:57:40;;;;;;;0.60;0.60;;;17.00;60.80;;;;;;5132654;27;20041;-33
2021/04/16 13:00:15;;;;;;;0.85;0.60;;;16.90;60.80;;;;;;5128389;27;20031;-33
2021/04/16 13:02:41;;;;;;;1.35;0.50;;;16.90;60.90;;;;;;5132760;27;20019;-33
2021/04/16 13:05:10;;;;;;;0.50;0.45;;;16.90;60.80;;;;;;5114037;27;20027;-33
2021/04/16 13:07:36;;;;;;;1.00;0.82;;;17.00;60.90;;;;;;5109637;27;20047;-33
2021/04/16 13:10:09;;;;;;;0.63;0.60;;;17.00;60.90;;;;;;5133371;27;20736;-33
2021/04/16 13:12:35;;;;;;;0.73;0.60;;;17.00;60.80;;;;;;5131837;27;20089;-33
2021/04/16 13:15:01;;;;;;;0.93;0.60;;;17.00;60.80;;;;;;5128684;27;20031;-33
2021/04/16 13:17:27;;;;;;;0.80;0.50;;;17.00;60.80;;;;;;5129740;27;20020;-33
2021/04/16 13:19:55;;;;;;;0.93;0.65;;;16.90;60.80;;;;;;5106535;28;20033;-33
2021/04/16 13:22:21;;;;;;;0.90;0.52;;;17.00;60.90;;;;;;5127420;27;20028;-33
2021/04/16 13:24:49;;;;;;;0.90;0.60;;;17.00;60.90;;;;;;5146316;27;20034;-33
2021/04/16 13:27:17;;;;;;;0.55;0.50;;;16.90;60.90;;;;;;5110899;27;20035;-33
2021/04/16 13:29:43;;;;;;;1.05;0.70;;;17.00;60.90;;;;;;5146095;27;20059;-33
2021/04/16 13:32:11;;;;;;;0.70;0.60;;;17.00;61.00;;;;;;5127646;27;20110;-33
2021/04/16 13:34:39;;;;;;;0.80;0.50;;;17.00;61.00;;;;;;5110916;27;20029;-33
2021/04/16 13:37:06;;;;;;;0.90;0.60;;;17.00;61.00;;;;;;5110532;27;20023;-33
2021/04/16 13:39:32;;;;;;;1.05;0.60;;;17.00;60.90;;;;;;5124260;28;20032;-34
2021/04/16 13:41:58;;;;;;;1.45;0.65;;;17.00;61.00;;;;;;5125085;28;20040;-34
2021/04/16 13:44:24;;;;;;;0.80;0.60;;;17.00;61.00;;;;;;5137736;27;20104;-34
2021/04/16 13:46:52;;;;;;;0.57;0.50;;;16.90;61.10;;;;;;5142480;27;20032;-34
2021/04/16 13:49:22;;;;;;;1.30;0.80;;;16.90;61.10;;;;;;5107607;27;20038;-33
2021/04/16 13:51:48;;;;;;;0.80;0.60;;;16.90;61.10;;;;;;5109359;27;20042;-33
2021/04/16 13:54:14;;;;;;;0.93;0.70;;;16.90;61.00;;;;;;5133679;27;20031;-33
2021/04/16 13:56:40;;;;;;;0.95;0.70;;;16.90;61.10;;;;;;5131136;27;20095;-33
2021/04/16 13:59:07;;;;;;;1.33;0.75;;;17.00;61.90;;;;;;5129870;27;20023;-34
2021/04/16 14:01:33;;;;;;;0.70;0.60;;;16.90;61.10;;;;;;5130970;27;20031;-34
2021/04/16 14:04:02;;;;;;;0.77;0.60;;;16.90;61.10;;;;;;5111073;27;20030;-33
2021/04/16 14:06:37;;;;;;;0.80;0.70;;;16.90;61.10;;;;;;5113296;27;20054;-33
2021/04/16 14:09:13;;;;;;;0.70;0.60;;;16.90;61.10;;;;;;5128245;27;20464;-33
2021/04/16 14:11:39;;;;;;;0.93;0.75;;;16.90;61.10;;;;;;5132158;27;20085;-34
2021/04/16 14:14:19;;;;;;;0.82;0.70;;;16.90;61.10;;;;;;5128881;27;20165;-34
2021/04/16 14:16:48;;;;;;;0.57;0.57;;;16.90;61.10;;;;;;5129992;27;20398;-33
2021/04/16 14:19:24;;;;;;;0.73;0.52;;;16.90;61.10;;;;;;5144603;27;20019;-33
2021/04/16 14:21:52;;;;;;;1.15;0.70;;;16.90;61.10;;;;;;5108339;28;20027;-33
2021/04/16 14:24:18;;;;;;;0.80;0.70;;;17.00;61.10;;;;;;5103852;28;20024;-33
2021/04/16 14:26:46;;;;;;;0.90;0.60;;;17.00;61.10;;;;;;5123924;28;20036;-34
2021/04/16 14:29:12;;;;;;;1.00;0.80;;;17.00;61.90;;;;;;5124232;28;20024;-33
2021/04/16 14:31:39;;;;;;;1.60;0.70;;;17.00;61.10;;;;;;5124338;28;20031;-33
2021/04/16 14:34:05;;;;;;;0.63;0.63;;;17.00;61.20;;;;;;5124174;28;20028;-33
2021/04/16 14:36:32;;;;;;;1.05;0.63;;;17.00;61.10;;;;;;5124388;28;20034;-33
2021/04/16 14:38:58;;;;;;;0.98;0.65;;;17.00;61.20;;;;;;5123767;28;20058;-33
2021/04/16 14:41:26;;;;;;;0.70;0.70;;;17.00;61.10;;;;;;5143379;27;20039;-33
2021/04/16 14:43:52;;;;;;;0.73;0.55;;;17.00;61.10;;;;;;5126192;27;20677;-33
2021/04/16 14:46:19;;;;;;;0.77;0.50;;;17.10;61.00;;;;;;5144665;27;20035;-34
2021/04/16 14:48:45;;;;;;;1.33;0.70;;;17.10;61.00;;;;;;5125230;27;20519;-33
2021/04/16 14:51:11;;;;;;;0.60;0.50;;;17.10;60.90;;;;;;5124112;28;20027;-33
2021/04/16 14:53:40;;;;;;;0.57;0.52;;;17.10;60.80;;;;;;5108773;28;20028;-33
2021/04/16 14:56:07;;;;;;;0.75;0.68;;;17.10;60.80;;;;;;5085631;28;20091;-33
2021/04/16 14:58:37;;;;;;;0.77;0.47;;;17.10;60.80;;;;;;5103315;28;20024;-34
2021/04/16 15:01:03;;;;;;;0.50;0.50;;;17.10;60.80;;;;;;5085433;28;20035;-33
2021/04/16 15:03:31;;;;;;;1.23;0.60;;;17.10;60.90;;;;;;5103561;28;20056;-41
2021/04/16 15:05:57;;;;;;;1.15;0.57;;;17.20;61.00;;;;;;5103110;28;20055;-40
2021/04/16 15:08:27;;;;;;;0.57;0.55;;;17.20;61.10;;;;;;5103016;28;20087;-40